Time;durP1;ratioP1;P1;durP2;ratioP2;P2;SDS_P1;SDS_P2;PMS_P1;PMS_P2;Temp;Humidity;BMP_temperature;BMP_pressure;BME280_temperature;BME280_humidity;BME280_pressure;Samples;Min_cycle;Max_cycle;Signal;HPM_P1;HPM_P2
2022/02/18 00:01:52;;;;;;;22.23;5.07;;;;;;;7.74;100.00;101020.09;5295643;28;20043;-72
2022/02/18 00:04:23;;;;;;;24.88;5.63;;;;;;;7.77;100.00;101018.09;5296869;28;20050;-73
2022/02/18 00:06:55;;;;;;;20.38;5.88;;;;;;;7.77;100.00;101012.06;5295418;28;20032;-73
2022/02/18 00:09:26;;;;;;;23.58;4.68;;;;;;;7.75;100.00;101009.53;5295114;28;20488;-73
2022/02/18 00:11:58;;;;;;;26.48;5.00;;;;;;;7.77;100.00;101004.25;5297265;28;20031;-73
2022/02/18 00:14:29;;;;;;;27.40;5.63;;;;;;;7.81;100.00;101010.91;5295905;28;20507;-73
2022/02/18 00:17:00;;;;;;;24.80;5.07;;;;;;;7.80;100.00;101004.00;5296036;28;20059;-73
2022/02/18 00:19:32;;;;;;;20.48;5.50;;;;;;;7.83;100.00;100995.13;5296313;28;20032;-73
2022/02/18 00:22:04;;;;;;;15.43;4.18;;;;;;;7.85;100.00;100988.88;5296706;28;20024;-73
2022/02/18 00:24:35;;;;;;;19.38;4.35;;;;;;;7.82;100.00;100989.09;5296806;28;20484;-72
2022/02/18 00:27:06;;;;;;;15.85;4.72;;;;;;;7.85;100.00;100988.88;5293707;28;20487;-71
2022/02/18 00:29:37;;;;;;;23.50;5.43;;;;;;;7.85;100.00;100988.88;5296435;28;20512;-73
2022/02/18 00:32:09;;;;;;;17.98;5.07;;;;;;;7.90;100.00;100989.38;5297175;28;20451;-73
2022/02/18 00:34:41;;;;;;;18.92;4.43;;;;;;;7.90;100.00;100981.53;5297238;28;20050;-73
2022/02/18 00:37:12;;;;;;;23.77;4.35;;;;;;;7.90;100.00;100981.53;5294028;28;20035;-73
2022/02/18 00:39:43;;;;;;;21.23;4.43;;;;;;;7.90;100.00;100981.53;5296376;28;20024;-73
2022/02/18 00:42:15;;;;;;;17.15;4.30;;;;;;;7.93;100.00;100975.28;5296646;28;20028;-73
2022/02/18 00:44:46;;;;;;;22.70;4.72;;;;;;;7.88;100.00;100980.84;5295648;28;20058;-73
2022/02/18 00:47:18;;;;;;;19.73;4.15;;;;;;;7.89;100.00;100976.44;5295955;28;20476;-73
2022/02/18 00:49:49;;;;;;;15.98;4.38;;;;;;;7.90;100.00;100978.94;5296405;28;20027;-73
2022/02/18 00:52:20;;;;;;;20.02;3.75;;;;;;;7.90;100.00;100970.28;5296387;28;20062;-73
2022/02/18 00:54:52;;;;;;;23.67;5.13;;;;;;;7.87;100.00;100965.28;5294056;28;20028;-73
2022/02/18 00:57:23;;;;;;;20.75;4.60;;;;;;;7.92;100.00;100969.25;5294594;28;20035;-73
2022/02/18 00:59:55;;;;;;;17.08;3.75;;;;;;;7.94;100.00;100964.72;5295880;28;20032;-73
2022/02/18 01:02:26;;;;;;;19.08;3.70;;;;;;;7.94;100.00;100956.06;5296109;28;20028;-73
2022/02/18 01:04:58;;;;;;;22.90;4.05;;;;;;;7.95;100.00;100961.16;5295110;28;20050;-73
2022/02/18 01:07:29;;;;;;;18.70;3.65;;;;;;;7.98;100.00;100950.53;5296600;28;20023;-73
2022/02/18 01:10:01;;;;;;;18.20;4.05;;;;;;;8.00;100.00;100948.66;5294460;28;20055;-73
2022/02/18 01:12:32;;;;;;;24.00;4.63;;;;;;;7.98;100.00;100942.69;5295054;28;20438;-73
2022/02/18 01:15:05;;;;;;;19.23;4.78;;;;;;;7.99;100.00;100941.78;5295802;28;20024;-73
2022/02/18 01:17:37;;;;;;;20.42;4.15;;;;;;;7.99;100.00;100930.47;5295715;28;20043;-73
2022/02/18 01:20:10;;;;;;;22.15;4.07;;;;;;;7.97;100.00;100921.94;5295267;28;20032;-73
2022/02/18 01:22:41;;;;;;;25.27;5.25;;;;;;;8.04;100.00;100931.00;5295690;28;20040;-74
2022/02/18 01:25:13;;;;;;;19.55;3.85;;;;;;;8.02;100.00;100922.44;5286695;28;20055;-73
2022/02/18 01:27:44;;;;;;;24.55;5.07;;;;;;;8.05;100.00;100922.22;5295549;28;20032;-73
2022/02/18 01:30:15;;;;;;;26.00;6.15;;;;;;;8.04;100.00;100917.94;5297891;28;20432;-74
2022/02/18 01:32:46;;;;;;;21.73;4.45;;;;;;;8.09;100.00;100921.03;5300743;28;20435;-73
2022/02/18 01:35:18;;;;;;;17.23;4.55;;;;;;;8.05;100.00;100928.25;5300276;28;20207;-74
2022/02/18 01:37:51;;;;;;;22.50;4.80;;;;;;;8.05;100.00;100917.81;5298561;28;20031;-73
2022/02/18 01:40:23;;;;;;;17.50;4.60;;;;;;;8.10;100.00;100924.47;5300054;28;20089;-73
2022/02/18 01:42:55;;;;;;;30.05;5.43;;;;;;;8.06;100.00;100908.22;5300186;28;20023;-73
2022/02/18 01:45:26;;;;;;;23.55;4.60;;;;;;;8.09;100.00;100909.78;5299528;28;20031;-73
2022/02/18 01:47:58;;;;;;;25.50;5.40;;;;;;;8.10;100.00;100901.00;5298829;28;20657;-73
2022/02/18 01:50:29;;;;;;;24.55;5.13;;;;;;;8.10;100.00;100898.38;5299762;28;20477;-73
2022/02/18 01:53:01;;;;;;;28.35;5.93;;;;;;;8.12;100.00;100888.69;5300215;28;20039;-72
2022/02/18 01:55:32;;;;;;;26.90;5.55;;;;;;;8.13;100.00;100887.72;5298001;28;20110;-73
2022/02/18 01:58:04;;;;;;;23.60;5.35;;;;;;;8.11;100.00;100874.81;5299271;28;20028;-73
2022/02/18 02:00:35;;;;;;;22.33;5.43;;;;;;;8.11;100.00;100873.97;5299601;28;20496;-73
2022/02/18 02:03:07;;;;;;;29.75;5.40;;;;;;;8.16;100.00;100862.25;5298743;28;20692;-73
2022/02/18 02:05:38;;;;;;;28.20;5.78;;;;;;;8.17;100.00;100850.84;5299625;28;20028;-73
2022/02/18 02:08:12;;;;;;;24.02;4.95;;;;;;;8.21;100.00;100856.66;5298918;28;20069;-73
2022/02/18 02:10:44;;;;;;;35.47;5.50;;;;;;;8.17;100.00;100861.28;5298571;28;20020;-74
2022/02/18 02:13:40;;;;;;;28.50;5.97;;;;;;;8.27;100.00;100858.84;5298807;28;20043;-74
2022/02/18 02:16:13;;;;;;;29.10;5.57;;;;;;;8.16;100.00;100853.59;5299324;28;20535;-74
2022/02/18 02:18:44;;;;;;;24.33;5.85;;;;;;;8.16;100.00;100857.03;5297451;28;20504;-73
2022/02/18 02:21:15;;;;;;;26.58;6.00;;;;;;;8.16;100.00;100851.81;5299366;28;20054;-71
2022/02/18 02:23:46;;;;;;;24.20;6.03;;;;;;;8.16;100.00;100843.16;5299594;28;20066;-73
2022/02/18 02:26:18;;;;;;;37.92;7.10;;;;;;;8.19;100.00;100832.47;5299262;28;20467;-73
2022/02/18 02:28:49;;;;;;;30.00;5.82;;;;;;;8.21;100.00;100822.75;5298448;28;20020;-73
2022/02/18 02:31:25;;;;;;;33.78;5.95;;;;;;;8.23;100.00;100818.25;5297640;28;20150;-73
2022/02/18 02:33:56;;;;;;;32.40;6.07;;;;;;;8.19;100.00;100806.38;5298856;28;20076;-74
2022/02/18 02:36:27;;;;;;;29.90;6.15;;;;;;;8.14;100.00;100793.66;5296457;28;20123;-75
2022/02/18 02:38:59;;;;;;;22.70;5.63;;;;;;;8.18;100.00;100796.88;5298037;28;20420;-73
2022/02/18 02:41:31;;;;;;;27.65;6.07;;;;;;;8.19;100.00;100788.94;5299007;28;20028;-73
2022/02/18 02:44:02;;;;;;;32.88;5.63;;;;;;;8.20;100.00;100781.94;5297495;28;20036;-73
2022/02/18 02:46:37;;;;;;;28.48;5.93;;;;;;;8.25;100.00;100757.16;5296061;28;20300;-73
2022/02/18 02:49:08;;;;;;;33.13;5.60;;;;;;;8.23;100.00;100764.28;5298640;28;20012;-73
2022/02/18 02:51:39;;;;;;;28.85;5.68;;;;;;;8.21;100.00;100749.66;5297821;28;20413;-73
2022/02/18 02:54:11;;;;;;;27.15;5.88;;;;;;;8.24;100.00;100754.66;5294342;28;20358;-73
2022/02/18 02:56:42;;;;;;;38.53;6.47;;;;;;;8.21;100.00;100736.63;5297644;28;20031;-73
2022/02/18 02:59:14;;;;;;;22.48;5.43;;;;;;;8.21;100.00;100726.19;5298723;28;20077;-73
2022/02/18 03:01:45;;;;;;;35.50;5.97;;;;;;;8.21;100.00;100716.56;5296959;28;20484;-73
2022/02/18 03:04:17;;;;;;;27.88;6.32;;;;;;;8.22;100.00;100725.22;5296967;28;20485;-73
2022/02/18 03:06:48;;;;;;;31.58;6.53;;;;;;;8.20;100.00;100711.47;5296647;28;20105;-74
2022/02/18 03:09:19;;;;;;;28.77;6.53;;;;;;;8.23;100.00;100722.53;5297938;28;20040;-75
2022/02/18 03:11:50;;;;;;;35.60;5.93;;;;;;;8.21;100.00;100713.13;5297000;28;20027;-74
2022/02/18 03:14:24;;;;;;;27.05;5.68;;;;;;;8.26;100.00;100703.19;5292940;28;20029;-74
2022/02/18 03:16:55;;;;;;;;;;;;;;;8.67;100.00;100704.34;5291635;28;20043;-73
2022/02/18 03:19:26;;;;;;;30.13;6.00;;;;;;;8.29;100.00;100689.88;5294927;28;20357;-73
2022/02/18 03:21:57;;;;;;;30.30;6.63;;;;;;;8.25;100.00;100681.47;5297326;28;20019;-73
2022/02/18 03:24:30;;;;;;;29.60;5.95;;;;;;;8.24;100.00;100666.75;5298488;28;20126;-73
2022/02/18 03:27:02;;;;;;;30.13;6.15;;;;;;;8.24;100.00;100666.75;5296831;28;20011;-73
2022/02/18 03:29:33;;;;;;;34.20;6.18;;;;;;;8.23;100.00;100654.66;5297537;28;20038;-73
2022/02/18 03:32:05;;;;;;;27.25;6.22;;;;;;;8.25;100.00;100641.47;5297893;28;20016;-72
2022/02/18 03:34:37;;;;;;;28.75;5.57;;;;;;;8.22;100.00;100639.97;5298302;28;20032;-73
2022/02/18 03:37:09;;;;;;;32.47;6.80;;;;;;;8.23;100.00;100639.00;5296467;28;20491;-73
2022/02/18 03:39:40;;;;;;;37.42;7.75;;;;;;;8.21;100.00;100646.09;5297095;28;20447;-73
2022/02/18 03:42:11;;;;;;;28.63;5.57;;;;;;;8.24;100.00;100639.84;5297792;28;20032;-73
2022/02/18 03:44:42;;;;;;;36.72;7.40;;;;;;;8.24;100.00;100629.41;5297539;28;20477;-72
2022/02/18 03:47:14;;;;;;;25.52;5.78;;;;;;;8.25;100.00;100628.44;5296375;28;20028;-73
2022/02/18 03:49:45;;;;;;;26.50;6.45;;;;;;;8.20;100.00;100630.59;5297219;28;20016;-73
2022/02/18 03:52:16;;;;;;;31.05;5.72;;;;;;;8.18;100.00;100648.97;5296699;28;20039;-73
2022/02/18 03:54:48;;;;;;;32.42;6.80;;;;;;;8.14;100.00;100631.06;5293273;28;20485;-73
2022/02/18 03:57:19;;;;;;;31.25;5.80;;;;;;;8.16;100.00;100627.38;5296886;28;20063;-72
2022/02/18 03:59:50;;;;;;;30.60;6.55;;;;;;;8.14;100.00;100621.44;5297070;28;20111;-73
2022/02/18 04:02:21;;;;;;;35.85;6.35;;;;;;;8.12;100.00;100607.69;5295698;28;20031;-73
2022/02/18 04:04:53;;;;;;;32.47;6.70;;;;;;;8.11;100.00;100586.97;5296691;28;20114;-73
2022/02/18 04:07:25;;;;;;;25.65;5.90;;;;;;;8.14;100.00;100584.09;5296922;28;20282;-73
2022/02/18 04:09:56;;;;;;;28.40;5.88;;;;;;;8.08;100.00;100564.53;5296040;28;20075;-73
2022/02/18 04:12:27;;;;;;;34.17;6.78;;;;;;;8.09;100.00;100547.94;5296732;28;20077;-73
2022/02/18 04:14:59;;;;;;;35.33;6.72;;;;;;;8.12;100.00;100544.25;5295685;28;20026;-73
2022/02/18 04:17:31;;;;;;;31.45;6.57;;;;;;;8.11;100.00;100529.56;5295890;28;20465;-73
2022/02/18 04:20:02;;;;;;;32.42;6.03;;;;;;;8.11;100.00;100519.94;5296322;28;20043;-73
2022/02/18 04:22:33;;;;;;;30.63;6.13;;;;;;;8.15;100.00;100515.31;5296921;28;20772;-73
2022/02/18 04:25:05;;;;;;;31.05;7.25;;;;;;;8.16;100.00;100501.31;5296176;28;20430;-74
2022/02/18 04:27:37;;;;;;;33.33;7.40;;;;;;;8.10;100.00;100479.13;5295814;28;20032;-74
2022/02/18 04:30:09;;;;;;;29.08;7.28;;;;;;;8.17;100.00;100475.06;5297074;28;20538;-74
2022/02/18 04:32:40;;;;;;;23.33;5.70;;;;;;;8.15;100.00;100492.66;5296092;28;20130;-73
2022/02/18 04:35:11;;;;;;;27.73;6.47;;;;;;;8.18;100.00;100487.19;5295495;28;20027;-73
2022/02/18 04:37:43;;;;;;;29.58;5.88;;;;;;;8.17;100.00;100471.66;5295639;28;20130;-73
2022/02/18 04:40:16;;;;;;;21.75;5.03;;;;;;;8.16;100.00;100452.56;5296555;28;20066;-73
2022/02/18 04:42:47;;;;;;;;;;;;;;;8.53;100.00;100454.81;5297085;28;20415;-73
2022/02/18 04:45:18;;;;;;;27.50;5.68;;;;;;;8.22;100.00;100441.63;5295671;28;19958;-73
2022/02/18 04:47:50;;;;;;;23.13;5.90;;;;;;;8.22;100.00;100430.34;5295921;28;20074;-73
2022/02/18 04:50:22;;;;;;;30.98;5.22;;;;;;;8.13;100.00;100408.44;5296640;28;20016;-73
2022/02/18 04:52:53;;;;;;;26.17;6.45;;;;;;;8.21;100.00;100423.47;5294146;28;20042;-74
2022/02/18 04:55:24;;;;;;;21.48;4.93;;;;;;;8.23;100.00;100418.97;5292970;28;20032;-74
2022/02/18 04:57:56;;;;;;;26.02;5.53;;;;;;;8.22;100.00;100412.94;5295712;28;20032;-74
2022/02/18 05:00:27;;;;;;;25.40;5.40;;;;;;;8.21;100.00;100395.59;5293515;28;20032;-73
2022/02/18 05:02:58;;;;;;;26.98;5.55;;;;;;;8.23;100.00;100388.47;5295133;28;20588;-74
2022/02/18 05:05:29;;;;;;;21.67;5.38;;;;;;;8.20;100.00;100367.03;5295483;28;20028;-73
2022/02/18 05:08:01;;;;;;;25.77;5.55;;;;;;;8.26;100.00;100372.56;5295517;28;20044;-73
2022/02/18 05:10:32;;;;;;;21.35;4.60;;;;;;;8.27;100.00;100373.41;5294404;28;20032;-74
2022/02/18 05:13:03;;;;;;;23.77;5.10;;;;;;;8.26;100.00;100364.75;5296185;28;20057;-73
2022/02/18 05:15:35;;;;;;;22.35;4.72;;;;;;;8.27;100.00;100358.56;5296542;28;20028;-73
2022/02/18 05:18:06;;;;;;;18.55;4.45;;;;;;;8.27;100.00;100344.69;5295288;28;20058;-73
2022/02/18 05:20:37;;;;;;;23.33;5.93;;;;;;;8.29;100.00;100340.97;5295434;28;20252;-73
2022/02/18 05:23:09;;;;;;;22.08;5.60;;;;;;;8.31;100.00;100346.09;5295954;28;20055;-73
2022/02/18 05:25:40;;;;;;;28.20;5.18;;;;;;;8.25;100.00;100342.19;5295016;28;20056;-73
2022/02/18 05:28:12;;;;;;;22.10;4.72;;;;;;;8.27;100.00;100345.50;5295521;28;20477;-73
2022/02/18 05:30:43;;;;;;;21.83;4.30;;;;;;;8.25;100.00;100325.72;5294623;28;20122;-73
2022/02/18 05:33:15;;;;;;;20.88;4.90;;;;;;;8.32;100.00;100297.31;5295309;28;20032;-73
2022/02/18 05:35:46;;;;;;;21.05;4.97;;;;;;;8.36;100.00;100288.28;5295890;28;20020;-73
2022/02/18 05:38:17;;;;;;;19.75;4.63;;;;;;;8.40;100.00;100300.13;5295655;28;20127;-73
2022/02/18 05:40:48;;;;;;;23.05;4.13;;;;;;;8.36;100.00;100288.28;5295106;28;20485;-73
2022/02/18 05:43:20;;;;;;;25.40;4.40;;;;;;;8.36;100.00;100286.50;5294026;28;20035;-73
2022/02/18 05:45:51;;;;;;;18.77;4.22;;;;;;;8.40;100.00;100274.88;5295302;28;20020;-72
2022/02/18 05:48:23;;;;;;;23.10;4.43;;;;;;;8.43;100.00;100272.00;5294856;28;20055;-73
2022/02/18 05:50:54;;;;;;;23.60;4.90;;;;;;;8.40;100.00;100259.19;5295714;28;20038;-74
2022/02/18 05:53:25;;;;;;;21.02;5.22;;;;;;;8.38;100.00;100245.47;5295912;28;20027;-75
2022/02/18 05:55:56;;;;;;;19.33;4.20;;;;;;;8.31;100.00;100233.03;5291982;28;20073;-74
2022/02/18 05:58:28;;;;;;;20.55;5.03;;;;;;;8.29;100.00;100235.75;5295050;28;20032;-74
2022/02/18 06:00:59;;;;;;;25.08;4.63;;;;;;;8.30;100.00;100221.78;5294326;28;20501;-74
2022/02/18 06:03:31;;;;;;;22.63;4.82;;;;;;;8.32;100.00;100224.25;5295052;28;20043;-74
2022/02/18 06:06:03;;;;;;;22.88;4.53;;;;;;;8.22;100.00;100213.75;5295769;28;20028;-73
2022/02/18 06:08:34;;;;;;;24.93;5.40;;;;;;;8.12;100.00;100195.47;5294868;28;20051;-73
2022/02/18 06:11:06;;;;;;;21.42;4.80;;;;;;;8.14;100.00;100195.31;5294364;28;20286;-71
2022/02/18 06:13:37;;;;;;;23.27;4.18;;;;;;;8.09;100.00;100182.66;5298463;28;20024;-72
2022/02/18 06:16:08;;;;;;;19.40;5.05;;;;;;;8.08;100.00;100178.41;5300073;28;20027;-72
2022/02/18 06:18:39;;;;;;;19.60;4.70;;;;;;;8.05;100.00;100160.41;5298821;28;20074;-71
2022/02/18 06:21:11;;;;;;;23.52;5.05;;;;;;;8.07;100.00;100157.66;5298494;28;20090;-72
2022/02/18 06:23:43;;;;;;;32.83;5.32;;;;;;;8.04;100.00;100153.53;5298750;28;20032;-72
2022/02/18 06:26:14;;;;;;;26.38;5.22;;;;;;;8.06;100.00;100138.56;5299252;28;20500;-72
2022/02/18 06:28:46;;;;;;;22.52;4.50;;;;;;;8.02;100.00;100124.16;5299828;28;20067;-72
2022/02/18 06:31:18;;;;;;;22.77;4.90;;;;;;;8.03;100.00;100121.41;5297883;28;20059;-72
2022/02/18 06:33:50;;;;;;;22.27;4.80;;;;;;;8.02;100.00;100119.75;5299310;28;20092;-72
2022/02/18 06:36:22;;;;;;;24.83;5.25;;;;;;;8.01;100.00;100099.84;5299129;28;20399;-71
2022/02/18 06:38:53;;;;;;;22.63;5.30;;;;;;;8.02;100.00;100092.84;5298778;28;20635;-72
2022/02/18 06:41:24;;;;;;;23.00;5.55;;;;;;;8.03;100.00;100082.28;5298074;28;20097;-72
2022/02/18 06:43:55;;;;;;;20.00;4.55;;;;;;;8.06;100.00;100078.56;5298327;28;20024;-71
2022/02/18 06:46:27;;;;;;;23.90;4.32;;;;;;;8.09;100.00;100073.09;5298799;28;20534;-71
2022/02/18 06:48:58;;;;;;;27.33;5.22;;;;;;;8.09;100.00;100059.22;5297944;28;20369;-71
2022/02/18 06:51:29;;;;;;;25.95;4.85;;;;;;;8.11;100.00;100052.94;5298331;28;20388;-71
2022/02/18 06:54:01;;;;;;;22.58;5.50;;;;;;;8.11;100.00;100041.69;5297977;28;20024;-71
2022/02/18 06:56:32;;;;;;;25.83;4.95;;;;;;;8.12;100.00;100036.31;5298070;28;20042;-72
2022/02/18 06:59:04;;;;;;;24.70;5.05;;;;;;;8.18;100.00;100029.72;5297849;28;20169;-72
2022/02/18 07:01:35;;;;;;;21.13;5.15;;;;;;;8.17;100.00;100018.47;5296443;28;20043;-71
2022/02/18 07:04:06;;;;;;;19.85;4.60;;;;;;;8.15;100.00;100001.31;5296996;28;20409;-71
2022/02/18 07:06:37;;;;;;;29.13;5.05;;;;;;;8.20;100.00;100005.16;5298290;28;20497;-72
2022/02/18 07:09:11;;;;;;;21.83;6.00;;;;;;;8.20;100.00;99996.50;5294370;28;20040;-71
2022/02/18 07:11:42;;;;;;;22.42;5.25;;;;;;;8.19;100.00;99997.47;5297038;28;20056;-71
2022/02/18 07:14:14;;;;;;;25.95;5.18;;;;;;;8.18;100.00;99988.81;5296164;28;20506;-72
2022/02/18 07:16:45;;;;;;;21.02;5.20;;;;;;;8.26;100.00;99985.53;5296713;28;20370;-72
2022/02/18 07:19:16;;;;;;;21.58;5.32;;;;;;;8.28;100.00;99986.19;5294319;28;20036;-72
2022/02/18 07:21:48;;;;;;;24.23;5.32;;;;;;;8.35;100.00;99973.44;5296334;28;20036;-72
2022/02/18 07:24:19;;;;;;;21.40;5.07;;;;;;;8.38;100.00;99970.59;5294843;28;20463;-72
2022/02/18 07:26:50;;;;;;;28.30;7.00;;;;;;;8.40;100.00;99953.00;5297240;28;20423;-75
2022/02/18 07:29:22;;;;;;;23.25;5.43;;;;;;;8.43;100.00;99943.09;5296543;28;20046;-76
2022/02/18 07:31:53;;;;;;;22.20;4.75;;;;;;;8.45;100.00;99956.03;5297317;28;20031;-75
2022/02/18 07:34:24;;;;;;;22.27;5.40;;;;;;;8.50;100.00;99940.78;5297856;28;20074;-76
2022/02/18 07:36:55;;;;;;;19.23;5.40;;;;;;;8.49;100.00;99932.13;5297301;28;20028;-76
2022/02/18 07:39:27;;;;;;;23.63;5.40;;;;;;;8.55;100.00;99932.50;5295446;28;20145;-73
2022/02/18 07:41:58;;;;;;;21.17;5.25;;;;;;;8.56;100.00;99923.72;5297346;28;20038;-73
2022/02/18 07:44:29;;;;;;;21.15;5.25;;;;;;;8.58;100.00;99900.91;5286038;28;20035;-74
2022/02/18 07:47:01;;;;;;;20.63;5.20;;;;;;;8.65;100.00;99899.38;5293609;28;21532;-73
2022/02/18 07:49:32;;;;;;;18.85;4.90;;;;;;;8.68;100.00;99883.44;5296162;28;20031;-75
2022/02/18 07:52:04;;;;;;;19.88;4.90;;;;;;;8.75;100.00;99889.72;5294626;28;20753;-75
2022/02/18 07:54:35;;;;;;;16.42;4.68;;;;;;;8.77;100.00;99872.16;5294205;28;20118;-75
2022/02/18 07:57:07;;;;;;;16.05;5.22;;;;;;;8.80;100.00;99868.44;5296042;28;20053;-73
2022/02/18 07:59:38;;;;;;;17.10;4.40;;;;;;;8.89;100.00;99870.19;5296648;28;20024;-73
2022/02/18 08:02:10;;;;;;;15.82;4.20;;;;;;;8.93;100.00;99868.91;5296104;28;20024;-73
2022/02/18 08:04:42;;;;;;;17.38;5.05;;;;;;;8.93;100.00;99850.63;5296748;28;20717;-73
2022/02/18 08:07:14;;;;;;;15.80;4.05;;;;;;;9.00;100.00;99846.47;5296049;28;20047;-73
2022/02/18 08:09:45;;;;;;;17.40;3.72;;;;;;;9.05;100.00;99846.84;5295916;28;20577;-72
2022/02/18 08:12:17;;;;;;;19.58;4.70;;;;;;;9.02;100.00;99845.38;5295018;28;20040;-73
2022/02/18 08:14:48;;;;;;;12.65;4.22;;;;;;;9.11;100.00;99835.84;5296628;28;20028;-73
2022/02/18 08:17:19;;;;;;;22.10;4.13;;;;;;;9.12;100.00;99826.22;5295345;28;20435;-73
2022/02/18 08:19:51;;;;;;;13.85;4.13;;;;;;;9.15;100.00;99821.50;5295869;28;20426;-72
2022/02/18 08:22:27;;;;;;;13.40;4.10;;;;;;;9.24;100.00;99822.41;5295757;28;20051;-73
2022/02/18 08:24:59;;;;;;;14.10;3.03;;;;;;;9.27;100.00;99809.88;5296293;28;20028;-73
2022/02/18 08:27:31;;;;;;;12.45;3.22;;;;;;;9.34;100.00;99807.50;5296053;28;20028;-73
2022/02/18 08:30:04;;;;;;;16.30;4.63;;;;;;;9.37;100.00;99804.59;5293734;28;20039;-73
2022/02/18 08:32:36;;;;;;;12.18;2.90;;;;;;;9.40;100.00;99796.47;5295766;28;20062;-73
2022/02/18 08:35:07;;;;;;;11.25;3.00;;;;;;;9.45;100.00;99794.22;5294563;28;20024;-73
2022/02/18 08:37:38;;;;;;;13.85;2.95;;;;;;;9.47;100.00;99794.91;5294067;28;20031;-73
2022/02/18 08:40:10;;;;;;;11.27;2.63;;;;;;;9.53;100.00;99792.66;5296024;28;20020;-73
2022/02/18 08:42:41;;;;;;;12.98;2.92;;;;;;;9.54;100.00;99770.78;5295931;28;20020;-73
2022/02/18 08:45:13;;;;;;;12.80;2.80;;;;;;;9.60;100.00;99765.78;5296314;28;20031;-73
2022/02/18 08:47:45;;;;;;;8.73;2.83;;;;;;;9.64;100.00;99766.28;5294588;28;20027;-73
2022/02/18 08:50:17;;;;;;;13.48;3.20;;;;;;;9.68;100.00;99752.75;5296131;28;20024;-74
2022/02/18 08:52:48;;;;;;;9.98;2.33;;;;;;;9.75;100.00;99753.81;5295733;28;20089;-73
2022/02/18 08:55:21;;;;;;;10.95;2.70;;;;;;;9.80;100.00;99731.59;5292457;28;20088;-74
2022/02/18 08:57:53;;;;;;;10.48;2.70;;;;;;;9.85;100.00;99722.34;5295402;28;20185;-73
2022/02/18 09:00:24;;;;;;;9.88;2.28;;;;;;;9.88;100.00;99726.41;5296240;28;20114;-73
2022/02/18 09:02:55;;;;;;;7.00;2.10;;;;;;;9.89;100.00;99715.00;5295719;28;20059;-74
2022/02/18 09:05:27;;;;;;;7.70;2.38;;;;;;;9.96;100.00;99701.16;5294708;28;20141;-74
2022/02/18 09:08:00;;;;;;;7.57;2.15;;;;;;;10.08;100.00;99695.66;5295147;28;20562;-73
2022/02/18 09:10:31;;;;;;;6.13;2.00;;;;;;;10.11;100.00;99690.09;5293445;28;20055;-73
2022/02/18 09:13:03;;;;;;;4.53;1.80;;;;;;;10.14;100.00;99680.13;5294704;28;20488;-74
2022/02/18 09:15:34;;;;;;;4.88;1.75;;;;;;;10.22;100.00;99674.94;5296047;28;20068;-73
2022/02/18 09:18:06;;;;;;;5.85;1.60;;;;;;;10.31;100.00;99665.38;5295277;28;20388;-74
2022/02/18 09:20:37;;;;;;;6.32;1.83;;;;;;;10.33;100.00;99663.41;5295108;28;20464;-73
2022/02/18 09:23:08;;;;;;;2.42;1.40;;;;;;;10.31;100.00;99668.00;5295088;28;20400;-73
2022/02/18 09:25:40;;;;;;;2.92;1.52;;;;;;;10.41;100.00;99662.63;5295202;28;20392;-74
2022/02/18 09:28:11;;;;;;;3.72;1.30;;;;;;;10.47;100.00;99662.81;5294324;28;20427;-73
2022/02/18 09:30:44;;;;;;;4.25;1.63;;;;;;;10.54;100.00;99651.72;5295618;28;20043;-73
2022/02/18 09:33:17;;;;;;;3.10;1.25;;;;;;;10.56;100.00;99640.09;5295247;28;20027;-74
2022/02/18 09:35:49;;;;;;;3.08;1.50;;;;;;;10.61;100.00;99637.81;5293572;28;20024;-75
2022/02/18 09:38:20;;;;;;;5.97;1.77;;;;;;;10.69;100.00;99650.13;5294136;28;20425;-74
2022/02/18 09:40:51;;;;;;;3.72;1.27;;;;;;;10.75;100.00;99638.97;5295234;28;20021;-73
2022/02/18 09:43:23;;;;;;;4.40;1.30;;;;;;;10.83;100.00;99649.47;5294001;28;20024;-74
2022/02/18 09:45:55;;;;;;;2.72;1.23;;;;;;;10.88;100.00;99643.78;5293157;28;20042;-73
2022/02/18 09:48:27;;;;;;;2.75;1.15;;;;;;;10.92;100.00;99640.66;5299149;28;20016;-73
2022/02/18 09:50:59;;;;;;;2.05;1.08;;;;;;;11.00;100.00;99633.78;5298948;28;20031;-73
2022/02/18 09:53:32;;;;;;;3.30;1.20;;;;;;;11.01;100.00;99612.66;5297027;28;20028;-73
2022/02/18 09:56:06;;;;;;;2.60;1.10;;;;;;;11.11;100.00;99610.69;5297741;28;20547;-73
2022/02/18 09:58:38;;;;;;;2.25;0.88;;;;;;;11.08;100.00;99613.66;5298620;28;20293;-73
2022/02/18 10:01:12;;;;;;;2.78;1.08;;;;;;;11.15;100.00;99595.47;5299617;28;20023;-73
2022/02/18 10:03:43;;;;;;;2.85;1.00;;;;;;;11.22;100.00;99585.16;5298253;28;20051;-73
2022/02/18 10:06:14;;;;;;;4.03;1.40;;;;;;;11.27;100.00;99581.03;5298655;28;20489;-73
2022/02/18 10:08:47;;;;;;;1.42;0.70;;;;;;;11.30;100.00;99574.66;5297222;28;20058;-73
2022/02/18 10:11:19;;;;;;;2.28;0.90;;;;;;;11.40;100.00;99568.25;5299611;28;20059;-73
2022/02/18 10:13:53;;;;;;;1.92;1.00;;;;;;;11.52;100.00;99576.59;5298009;28;20082;-73
2022/02/18 10:16:25;;;;;;;1.90;1.10;;;;;;;11.53;100.00;99570.34;5297673;28;20027;-72
2022/02/18 10:18:58;;;;;;;2.35;0.95;;;;;;;11.53;100.00;99562.47;5297251;28;20047;-73
2022/02/18 10:21:32;;;;;;;1.65;1.00;;;;;;;11.62;100.00;99553.59;5297889;28;20473;-73
2022/02/18 10:24:06;;;;;;;;;;;;;;;11.86;100.00;99555.34;5299436;28;20028;-73
2022/02/18 10:26:40;;;;;;;2.38;1.00;;;;;;;11.65;100.00;99539.31;5298469;28;20438;-72
2022/02/18 10:29:24;;;;;;;2.85;1.15;;;;;;;11.80;100.00;99539.44;5297030;28;20051;-73
2022/02/18 10:32:15;;;;;;;3.08;0.82;;;;;;;11.94;100.00;99520.38;5298375;28;20031;-73
2022/02/18 10:34:57;;;;;;;2.08;0.75;;;;;;;11.95;100.00;99515.94;5299388;28;20047;-73
2022/02/18 10:37:31;;;;;;;2.05;1.00;;;;;;;11.88;100.00;99500.06;5296911;28;20074;-74
2022/02/18 10:40:17;;;;;;;2.67;0.82;;;;;;;11.96;100.00;99488.72;5297658;28;20370;-73
2022/02/18 10:42:54;;;;;;;2.05;1.00;;;;;;;12.00;100.00;99479.50;5298732;28;20067;-73
2022/02/18 10:45:28;;;;;;;2.05;0.60;;;;;;;12.02;100.00;99480.97;5297669;28;20515;-73
2022/02/18 10:48:11;;;;;;;1.48;0.75;;;;;;;12.14;100.00;99468.25;5297927;28;20055;-74
2022/02/18 10:50:42;;;;;;;1.65;0.77;;;;;;;12.14;100.00;99447.25;5298607;28;20477;-73
2022/02/18 10:53:19;;;;;;;1.45;0.50;;;;;;;12.21;100.00;99442.94;5297854;28;20042;-73
2022/02/18 10:55:59;;;;;;;2.30;0.77;;;;;;;12.29;100.00;99440.25;5296678;28;20036;-73
2022/02/18 10:58:35;;;;;;;2.58;0.70;;;;;;;12.15;100.00;99433.13;5294602;28;20453;-73
2022/02/18 11:01:14;;;;;;;1.90;0.60;;;;;;;12.16;100.00;99419.84;5297922;28;20451;-73
2022/02/18 11:03:47;;;;;;;1.20;0.60;;;;;;;12.17;100.00;99425.91;5298549;28;20036;-73
2022/02/18 11:06:28;;;;;;;2.20;0.60;;;;;;;12.22;100.00;99423.56;5296544;28;20024;-73
2022/02/18 11:09:11;;;;;;;1.02;0.60;;;;;;;12.27;100.00;99412.53;5297788;28;20043;-73
2022/02/18 11:11:45;;;;;;;1.42;0.70;;;;;;;12.14;100.00;99421.81;5296781;28;20107;-72
2022/02/18 11:14:18;;;;;;;2.10;0.77;;;;;;;12.23;100.00;99412.06;5297725;28;20058;-73
2022/02/18 11:16:52;;;;;;;1.38;0.70;;;;;;;12.25;100.00;99406.66;5295868;28;20016;-73
2022/02/18 11:19:24;;;;;;;1.38;0.60;;;;;;;12.28;100.00;99401.88;5297895;28;20038;-73
2022/02/18 11:21:55;;;;;;;1.30;0.80;;;;;;;12.26;100.00;99393.34;5297645;28;20044;-73
2022/02/18 11:24:28;;;;;;;2.33;0.90;;;;;;;12.28;100.00;99388.75;5296739;28;20039;-73
2022/02/18 11:27:02;;;;;;;1.92;1.08;;;;;;;12.28;100.00;99364.28;5297196;28;20020;-77
2022/02/18 11:29:36;;;;;;;1.40;0.70;;;;;;;12.29;100.00;99363.28;5297418;28;20487;-76
2022/02/18 11:32:30;;;;;;;1.95;0.70;;;;;;;12.47;100.00;99358.53;5297205;28;20059;-76
2022/02/18 11:35:29;;;;;;;2.10;0.98;;;;;;;12.46;100.00;99354.25;5295957;28;20050;-73
2022/02/18 11:38:44;;;;;;;1.73;0.65;;;;;;;12.42;100.00;99360.88;5296712;28;20032;-73
2022/02/18 11:41:20;;;;;;;2.78;0.80;;;;;;;12.44;100.00;99339.69;5280743;28;20097;-74
2022/02/18 11:43:53;;;;;;;1.77;0.80;;;;;;;12.38;100.00;99339.38;5296874;28;20435;-73
2022/02/18 11:46:26;;;;;;;2.85;0.80;;;;;;;12.40;100.00;99342.66;5290296;28;20157;-73